createdAt,value
2018-08-20T00:00:38.764Z,0.00
2018-08-20T00:01:38.773Z,0.00
2018-08-20T00:02:38.837Z,0.00
2018-08-20T00:03:38.867Z,0.00
2018-08-20T00:04:38.806Z,0.00
2018-08-20T00:05:38.873Z,0.00
2018-08-20T00:06:38.805Z,0.00
2018-08-20T00:07:38.870Z,0.00
2018-08-20T00:08:38.807Z,0.00
2018-08-20T00:09:38.873Z,0.00
2018-08-20T00:10:38.810Z,0.00
2018-08-20T00:11:38.804Z,0.00
2018-08-20T00:12:38.874Z,0.00
2018-08-20T00:13:38.805Z,0.00
2018-08-20T00:14:38.801Z,0.00
2018-08-20T00:15:38.900Z,0.00
2018-08-20T00:16:38.897Z,0.00
2018-08-20T00:17:38.877Z,0.00
2018-08-20T00:18:38.878Z,0.00
2018-08-20T00:19:38.880Z,0.00
2018-08-20T00:20:38.812Z,0.00
2018-08-20T00:21:38.881Z,0.00
2018-08-20T00:22:38.834Z,0.00
2018-08-20T00:23:38.782Z,0.00
2018-08-20T00:24:38.802Z,0.00
2018-08-20T00:25:38.875Z,0.00
2018-08-20T00:26:38.793Z,0.00
2018-08-20T00:27:38.872Z,0.00
2018-08-20T00:28:38.874Z,0.00
2018-08-20T00:29:38.873Z,0.00
2018-08-20T00:30:38.787Z,0.00
2018-08-20T00:31:38.837Z,0.00
2018-08-20T00:32:38.905Z,0.00
2018-08-20T00:33:38.786Z,0.00
2018-08-20T00:34:38.857Z,0.00
2018-08-20T00:35:38.880Z,0.00
2018-08-20T00:36:38.878Z,0.00
2018-08-20T00:37:38.882Z,0.00
2018-08-20T00:38:38.861Z,0.00
2018-08-20T00:39:38.797Z,0.00
2018-08-20T00:40:38.859Z,0.00
2018-08-20T00:41:38.754Z,0.00
2018-08-20T00:42:38.878Z,0.00
2018-08-20T00:43:38.828Z,0.00
2018-08-20T00:44:38.820Z,0.00
2018-08-20T00:45:38.897Z,0.00
2018-08-20T00:46:38.927Z,0.00
2018-08-20T00:47:38.828Z,0.00
2018-08-20T00:48:38.900Z,0.00
2018-08-20T00:49:38.830Z,0.00
2018-08-20T00:50:38.903Z,0.00
2018-08-20T00:51:38.846Z,0.00
2018-08-20T00:52:38.836Z,0.00
2018-08-20T00:53:38.868Z,0.00
2018-08-20T00:54:38.874Z,0.00
2018-08-20T00:55:38.838Z,0.00
2018-08-20T00:56:38.858Z,0.00
2018-08-20T00:57:38.810Z,0.00
2018-08-20T00:58:38.808Z,0.00
2018-08-20T00:59:38.770Z,0.00
2018-08-20T01:00:38.805Z,0.00
2018-08-20T01:01:38.792Z,0.00
2018-08-20T01:02:38.875Z,0.00
2018-08-20T01:03:38.873Z,0.00
2018-08-20T01:04:38.858Z,0.00
2018-08-20T01:05:38.831Z,0.00
2018-08-20T01:06:38.820Z,0.00
2018-08-20T01:07:38.914Z,0.00
2018-08-20T01:08:38.812Z,0.00
2018-08-20T01:09:38.908Z,0.00
2018-08-20T01:10:38.877Z,0.00
2018-08-20T01:11:38.827Z,0.00
2018-08-20T01:12:38.911Z,0.00
2018-08-20T01:13:38.845Z,0.00
2018-08-20T01:14:38.920Z,0.00
2018-08-20T01:15:38.867Z,0.00
2018-08-20T01:16:38.857Z,0.00
2018-08-20T01:17:38.919Z,0.00
2018-08-20T01:18:38.853Z,0.00
2018-08-20T01:19:38.922Z,0.00
2018-08-20T01:20:38.925Z,0.00
2018-08-20T01:21:38.925Z,0.00
2018-08-20T01:22:38.923Z,0.00
2018-08-20T01:23:38.884Z,0.00
2018-08-20T01:24:38.909Z,0.00
2018-08-20T01:25:38.851Z,0.00
2018-08-20T01:26:38.893Z,0.00
2018-08-20T01:27:38.786Z,0.00
2018-08-20T01:28:38.831Z,0.00
2018-08-20T01:29:38.793Z,0.00
2018-08-20T01:30:38.894Z,0.00
2018-08-20T01:31:38.817Z,0.00
2018-08-20T01:32:38.888Z,0.00
2018-08-20T01:33:38.943Z,0.00
2018-08-20T01:34:38.857Z,0.00
2018-08-20T01:35:38.932Z,0.00
2018-08-20T01:36:38.865Z,0.00
2018-08-20T01:37:38.976Z,0.00
2018-08-20T01:38:38.960Z,0.00
2018-08-20T01:39:38.934Z,0.00
2018-08-20T01:40:38.870Z,0.00
2018-08-20T01:41:38.937Z,0.00
2018-08-20T01:42:38.875Z,0.00
2018-08-20T01:43:38.938Z,0.00
2018-08-20T01:44:38.874Z,0.00
2018-08-20T01:45:38.838Z,0.00
2018-08-20T01:46:38.941Z,0.00
2018-08-20T01:47:38.941Z,0.00
2018-08-20T01:48:38.942Z,0.00
2018-08-20T01:49:38.941Z,0.00
2018-08-20T01:50:39.100Z,0.00
2018-08-20T01:51:38.959Z,0.00
2018-08-20T01:52:38.872Z,0.00
2018-08-20T01:53:38.945Z,0.00
2018-08-20T01:54:39.137Z,0.00
2018-08-20T01:55:38.848Z,0.00
2018-08-20T01:56:38.935Z,0.00
2018-08-20T01:57:38.847Z,0.00
2018-08-20T01:58:38.825Z,0.00
2018-08-20T01:59:38.853Z,0.00
2018-08-20T02:00:38.915Z,0.00
2018-08-20T02:01:38.858Z,0.00
2018-08-20T02:02:38.938Z,0.00
2018-08-20T02:03:38.945Z,0.00
2018-08-20T02:04:38.892Z,0.00
2018-08-20T02:05:38.953Z,0.00
2018-08-20T02:06:38.885Z,0.00
2018-08-20T02:07:38.955Z,0.00
2018-08-20T02:08:38.887Z,0.00
2018-08-20T02:09:38.965Z,0.00
2018-08-20T02:10:38.887Z,0.00
2018-08-20T02:11:38.847Z,0.00
2018-08-20T02:12:38.888Z,0.00
2018-08-20T02:13:38.957Z,0.00
2018-08-20T02:14:38.973Z,0.00
2018-08-20T02:15:38.858Z,0.00
2018-08-20T02:16:38.858Z,0.00
2018-08-20T02:17:38.916Z,0.00
2018-08-20T02:18:38.975Z,0.00
2018-08-20T02:19:38.815Z,0.00
2018-08-20T02:20:38.862Z,0.00
2018-08-20T02:21:38.905Z,0.00
2018-08-20T02:22:38.887Z,0.00
2018-08-20T02:23:38.924Z,0.00
2018-08-20T02:24:38.966Z,0.00
2018-08-20T02:25:38.854Z,0.00
2018-08-20T02:26:38.899Z,0.00
2018-08-20T02:27:38.969Z,0.00
2018-08-20T02:28:38.902Z,0.00
2018-08-20T02:29:38.901Z,0.00
2018-08-20T02:30:43.373Z,0.00
2018-08-20T02:31:38.989Z,0.00
2018-08-20T02:32:38.903Z,0.00
2018-08-20T02:33:38.902Z,0.00
2018-08-20T02:34:38.919Z,0.00
2018-08-20T02:35:38.876Z,0.00
2018-08-20T02:36:38.962Z,0.00
2018-08-20T02:37:38.881Z,0.00
2018-08-20T02:38:38.876Z,0.00
2018-08-20T02:39:38.972Z,0.00
2018-08-20T02:40:38.968Z,0.00
2018-08-20T02:41:38.946Z,0.00
2018-08-20T02:42:38.841Z,0.00
2018-08-20T02:43:38.980Z,0.00
2018-08-20T02:44:38.913Z,0.00
2018-08-20T02:45:38.928Z,0.00
2018-08-20T02:46:38.980Z,0.00
2018-08-20T02:47:38.980Z,0.00
2018-08-20T02:48:38.981Z,0.00
2018-08-20T02:49:38.866Z,0.00
2018-08-20T02:50:38.915Z,0.00
2018-08-20T02:51:38.984Z,0.00
2018-08-20T02:52:38.915Z,0.00
2018-08-20T02:53:38.916Z,0.00
2018-08-20T02:54:38.958Z,0.00
2018-08-20T02:55:38.868Z,0.00
2018-08-20T02:56:38.975Z,0.00
2018-08-20T02:57:38.979Z,0.00
2018-08-20T02:58:38.974Z,0.00
2018-08-20T02:59:38.990Z,0.00
2018-08-20T03:00:38.893Z,0.00
2018-08-20T03:01:38.905Z,0.00
2018-08-20T03:02:38.873Z,0.00
2018-08-20T03:03:38.983Z,0.00
2018-08-20T03:04:38.870Z,0.00
2018-08-20T03:05:38.880Z,0.00
2018-08-20T03:06:38.855Z,0.00
2018-08-20T03:07:38.955Z,0.00
2018-08-20T03:08:38.925Z,0.00
2018-08-20T03:09:38.923Z,0.00
2018-08-20T03:10:38.956Z,0.00
2018-08-20T03:11:38.892Z,0.00
2018-08-20T03:12:38.953Z,0.00
2018-08-20T03:13:38.956Z,0.00
2018-08-20T03:14:39.005Z,0.00
2018-08-20T03:15:39.004Z,0.00
2018-08-20T03:16:38.933Z,0.00
2018-08-20T03:17:38.940Z,0.00
2018-08-20T03:18:39.003Z,0.00
2018-08-20T03:19:38.945Z,0.00
2018-08-20T03:20:39.005Z,0.00
2018-08-20T03:21:38.940Z,0.00
2018-08-20T03:22:38.938Z,0.00
2018-08-20T03:23:39.008Z,0.00
2018-08-20T03:24:38.941Z,0.00
2018-08-20T03:25:39.012Z,0.00
2018-08-20T03:26:38.942Z,0.00
2018-08-20T03:27:39.010Z,0.00
2018-08-20T03:28:39.012Z,0.00
2018-08-20T03:29:38.947Z,0.00
2018-08-20T03:30:39.013Z,0.00
2018-08-20T03:31:39.016Z,0.00
2018-08-20T03:32:38.948Z,0.00
2018-08-20T03:33:39.017Z,0.00
2018-08-20T03:34:38.882Z,0.00
2018-08-20T03:35:38.945Z,0.00
2018-08-20T03:36:38.987Z,0.00
2018-08-20T03:37:39.004Z,0.00
2018-08-20T03:38:38.924Z,0.00
2018-08-20T03:39:38.886Z,0.00
2018-08-20T03:40:38.988Z,0.00
2018-08-20T03:41:38.920Z,0.00
2018-08-20T03:42:38.890Z,0.00
2018-08-20T03:43:38.920Z,0.00
2018-08-20T03:44:38.932Z,0.00
2018-08-20T03:45:39.021Z,0.00
2018-08-20T03:46:38.947Z,0.00
2018-08-20T03:47:38.995Z,0.00
2018-08-20T03:48:38.926Z,0.00
2018-08-20T03:49:38.996Z,0.00
2018-08-20T03:50:39.013Z,0.00
2018-08-20T03:51:38.959Z,0.00
2018-08-20T03:52:39.017Z,0.00
2018-08-20T03:53:38.898Z,0.00
2018-08-20T03:54:39.028Z,0.00
2018-08-20T03:55:38.965Z,0.00
2018-08-20T03:56:39.033Z,0.00
2018-08-20T03:57:39.031Z,0.00
2018-08-20T03:58:39.038Z,0.00
2018-08-20T03:59:39.039Z,0.00
2018-08-20T04:00:39.036Z,0.00
2018-08-20T04:01:38.969Z,0.00
2018-08-20T04:02:39.036Z,0.00
2018-08-20T04:03:38.969Z,0.00
2018-08-20T04:04:39.038Z,0.00
2018-08-20T04:05:38.970Z,0.00
2018-08-20T04:06:38.970Z,0.00
2018-08-20T04:07:39.041Z,0.00
2018-08-20T04:08:38.976Z,0.00
2018-08-20T04:09:38.975Z,0.00
2018-08-20T04:10:38.977Z,0.00
2018-08-20T04:11:39.067Z,0.00
2018-08-20T04:12:39.045Z,0.00
2018-08-20T04:13:38.971Z,0.00
2018-08-20T04:14:38.971Z,0.00
2018-08-20T04:15:39.041Z,0.00
2018-08-20T04:16:38.980Z,0.00
2018-08-20T04:17:38.979Z,0.00
2018-08-20T04:18:39.052Z,0.00
2018-08-20T04:19:38.980Z,0.00
2018-08-20T04:20:39.045Z,0.00
2018-08-20T04:21:38.979Z,0.00
2018-08-20T04:22:38.980Z,0.00
2018-08-20T04:23:39.049Z,0.00
2018-08-20T04:24:39.026Z,0.00
2018-08-20T04:25:38.981Z,0.00
2018-08-20T04:26:39.049Z,0.00
2018-08-20T04:27:38.983Z,0.00
2018-08-20T04:28:38.983Z,0.00
2018-08-20T04:29:39.053Z,0.00
2018-08-20T04:30:39.133Z,0.00
2018-08-20T04:31:39.053Z,0.00
2018-08-20T04:32:38.990Z,0.00
2018-08-20T04:33:38.987Z,0.00
2018-08-20T04:34:39.019Z,0.00
2018-08-20T04:35:38.983Z,0.00
2018-08-20T04:36:38.924Z,0.00
2018-08-20T04:37:39.023Z,0.00
2018-08-20T04:38:38.991Z,0.00
2018-08-20T04:39:39.007Z,0.00
2018-08-20T04:40:39.015Z,0.00
2018-08-20T04:41:39.025Z,0.00
2018-08-20T04:42:38.948Z,0.00
2018-08-20T04:43:38.987Z,0.00
2018-08-20T04:44:39.064Z,0.00
2018-08-20T04:45:39.065Z,0.00
2018-08-20T04:46:38.994Z,0.00
2018-08-20T04:47:39.064Z,1.00
2018-08-20T04:48:39.067Z,1.00
2018-08-20T04:49:38.995Z,1.00
2018-08-20T04:50:39.140Z,1.00
2018-08-20T04:51:38.995Z,1.00
2018-08-20T04:52:39.001Z,1.00
2018-08-20T04:53:39.069Z,1.00
2018-08-20T04:54:39.036Z,1.00
2018-08-20T04:55:39.068Z,1.00
2018-08-20T04:56:38.972Z,1.00
2018-08-20T04:57:39.069Z,1.00
2018-08-20T04:58:39.037Z,1.00
2018-08-20T04:59:39.016Z,1.00
2018-08-20T05:00:39.060Z,1.00
2018-08-20T05:01:39.018Z,1.00
2018-08-20T05:02:39.044Z,1.00
2018-08-20T05:03:39.001Z,1.00
2018-08-20T05:04:39.015Z,1.00
2018-08-20T05:05:39.075Z,2.00
2018-08-20T05:06:39.013Z,2.00
2018-08-20T05:07:38.958Z,2.00
2018-08-20T05:08:39.007Z,2.00
2018-08-20T05:09:39.081Z,2.00
2018-08-20T05:10:39.015Z,2.00
2018-08-20T05:11:39.080Z,2.00
2018-08-20T05:12:39.030Z,2.00
2018-08-20T05:13:39.088Z,2.00
2018-08-20T05:14:38.916Z,2.00
2018-08-20T05:15:39.004Z,2.00
2018-08-20T05:16:38.944Z,2.00
2018-08-20T05:17:39.100Z,2.00
2018-08-20T05:18:38.954Z,2.00
2018-08-20T05:19:38.974Z,2.00
2018-08-20T05:20:38.999Z,2.00
2018-08-20T05:21:39.031Z,3.00
2018-08-20T05:22:38.904Z,3.00
2018-08-20T05:23:38.953Z,3.00
2018-08-20T05:24:39.015Z,3.00
2018-08-20T05:25:39.025Z,3.00
2018-08-20T05:26:38.995Z,3.00
2018-08-20T05:27:39.053Z,3.00
2018-08-20T05:28:39.083Z,3.00
2018-08-20T05:29:38.974Z,3.00
2018-08-20T05:30:38.960Z,3.00
2018-08-20T05:31:39.033Z,3.00
2018-08-20T05:32:39.041Z,3.00
2018-08-20T05:33:39.081Z,4.00
2018-08-20T05:34:39.044Z,4.00
2018-08-20T05:35:39.101Z,4.00
2018-08-20T05:36:39.039Z,4.00
2018-08-20T05:37:39.102Z,4.00
2018-08-20T05:38:39.102Z,4.00
2018-08-20T05:39:39.033Z,4.00
2018-08-20T05:40:39.032Z,4.00
2018-08-20T05:41:39.043Z,4.00
2018-08-20T05:42:39.048Z,4.00
2018-08-20T05:43:39.105Z,4.00
2018-08-20T05:44:39.057Z,4.00
2018-08-20T05:45:39.030Z,4.00
2018-08-20T05:46:39.106Z,4.00
2018-08-20T05:47:39.105Z,4.00
2018-08-20T05:48:39.114Z,4.00
2018-08-20T05:49:39.108Z,4.00
2018-08-20T05:50:39.108Z,4.00
2018-08-20T05:51:39.110Z,4.00
2018-08-20T05:52:39.145Z,4.00
2018-08-20T05:53:39.111Z,5.00
2018-08-20T05:54:39.111Z,5.00
2018-08-20T05:55:39.041Z,5.00
2018-08-20T05:56:39.113Z,5.00
2018-08-20T05:57:39.044Z,5.00
2018-08-20T05:58:39.114Z,5.00
2018-08-20T05:59:39.049Z,6.00
2018-08-20T06:00:39.118Z,6.00
2018-08-20T06:01:39.047Z,6.00
2018-08-20T06:02:39.117Z,6.00
2018-08-20T06:03:39.117Z,6.00
2018-08-20T06:04:39.050Z,6.00
2018-08-20T06:05:39.119Z,6.00
2018-08-20T06:06:39.045Z,6.00
2018-08-20T06:07:39.120Z,6.00
2018-08-20T06:08:39.052Z,6.00
2018-08-20T06:09:39.052Z,6.00
2018-08-20T06:10:39.123Z,6.00
2018-08-20T06:11:39.124Z,7.00
2018-08-20T06:12:39.095Z,7.00
2018-08-20T06:13:39.056Z,7.00
2018-08-20T06:14:39.149Z,7.00
2018-08-20T06:15:39.009Z,7.00
2018-08-20T06:16:39.079Z,7.00
2018-08-20T06:17:39.130Z,7.00
2018-08-20T06:18:39.060Z,7.00
2018-08-20T06:19:39.127Z,8.00
2018-08-20T06:20:39.062Z,8.00
2018-08-20T06:21:39.132Z,8.00
2018-08-20T06:22:39.085Z,8.00
2018-08-20T06:23:39.129Z,8.00
2018-08-20T06:24:39.063Z,8.00
2018-08-20T06:25:39.132Z,8.00
2018-08-20T06:26:39.132Z,8.00
2018-08-20T06:27:39.063Z,9.00
2018-08-20T06:28:39.183Z,9.00
2018-08-20T06:29:39.135Z,9.00
2018-08-20T06:30:39.164Z,8.00
2018-08-20T06:31:39.070Z,8.00
2018-08-20T06:32:39.139Z,8.00
2018-08-20T06:33:39.139Z,8.00
2018-08-20T06:34:39.082Z,8.00
2018-08-20T06:35:39.013Z,8.00
2018-08-20T06:36:39.000Z,8.00
2018-08-20T06:37:38.994Z,9.00
2018-08-20T06:38:39.089Z,9.00
2018-08-20T06:39:39.084Z,9.00
2018-08-20T06:40:39.065Z,9.00
2018-08-20T06:41:39.068Z,9.00
2018-08-20T06:42:39.043Z,9.00
2018-08-20T06:43:38.995Z,9.00
2018-08-20T06:44:39.102Z,9.00
2018-08-20T06:45:39.056Z,9.00
2018-08-20T06:46:39.035Z,9.00
2018-08-20T06:47:39.054Z,9.00
2018-08-20T06:48:39.042Z,9.00
2018-08-20T06:49:39.098Z,9.00
2018-08-20T06:50:39.061Z,9.00
2018-08-20T06:51:39.147Z,9.00
2018-08-20T06:52:39.032Z,9.00
2018-08-20T06:53:39.126Z,9.00
2018-08-20T06:54:39.239Z,9.00
2018-08-20T06:55:39.153Z,8.00
2018-08-20T06:56:39.157Z,8.00
2018-08-20T06:57:39.108Z,7.00
2018-08-20T06:58:39.157Z,7.00
2018-08-20T06:59:39.091Z,6.00
2018-08-20T07:00:39.205Z,6.00
2018-08-20T07:01:39.115Z,6.00
2018-08-20T07:02:39.094Z,6.00
2018-08-20T07:03:39.161Z,6.00
2018-08-20T07:04:39.106Z,7.00
2018-08-20T07:05:39.085Z,7.00
2018-08-20T07:09:39.137Z,9.00
2018-08-20T07:10:39.095Z,9.00
2018-08-20T07:11:39.092Z,9.00
2018-08-20T07:12:39.094Z,9.00
2018-08-20T07:13:39.165Z,9.00
2018-08-20T07:14:39.169Z,8.00
2018-08-20T07:15:39.096Z,7.00
2018-08-20T07:16:39.168Z,6.00
2018-08-20T07:17:39.105Z,5.00
2018-08-20T07:18:39.169Z,5.00
2018-08-20T07:19:39.160Z,4.00
2018-08-20T07:20:39.172Z,4.00
2018-08-20T07:21:39.102Z,4.00
2018-08-20T07:22:39.113Z,5.00
2018-08-20T07:23:39.493Z,5.00
2018-08-20T07:24:39.107Z,5.00
2018-08-20T07:25:39.174Z,5.00
2018-08-20T07:26:39.107Z,6.00
2018-08-20T07:27:39.180Z,6.00
2018-08-20T07:28:39.179Z,7.00
2018-08-20T07:29:39.107Z,8.00
2018-08-20T07:30:39.178Z,8.00
2018-08-20T07:31:39.179Z,8.00
2018-08-20T07:32:39.179Z,9.00
2018-08-20T07:33:39.069Z,9.00
2018-08-20T07:34:39.109Z,9.00
2018-08-20T07:35:39.184Z,9.00
2018-08-20T07:36:39.140Z,9.00
2018-08-20T07:37:39.115Z,10.00
2018-08-20T07:38:39.115Z,10.00
2018-08-20T07:39:39.184Z,10.00
2018-08-20T07:40:39.161Z,10.00
2018-08-20T07:41:39.117Z,11.00
2018-08-20T07:42:39.188Z,11.00
2018-08-20T07:43:39.187Z,11.00
2018-08-20T07:44:39.190Z,11.00
2018-08-20T07:45:39.145Z,11.00
2018-08-20T07:46:39.098Z,11.00
2018-08-20T07:47:39.071Z,12.00
2018-08-20T07:48:39.068Z,12.00
2018-08-20T07:49:39.117Z,12.00
2018-08-20T07:50:39.146Z,11.00
2018-08-20T07:51:39.054Z,11.00
2018-08-20T07:52:39.119Z,11.00
2018-08-20T07:53:39.100Z,11.00
2018-08-20T07:54:39.128Z,11.00
2018-08-20T07:55:39.291Z,11.00
2018-08-20T07:56:39.148Z,11.00
2018-08-20T07:57:39.196Z,11.00
2018-08-20T07:58:39.171Z,12.00
2018-08-20T07:59:39.197Z,12.00
2018-08-20T08:00:39.124Z,13.00
2018-08-20T08:01:39.201Z,14.00
2018-08-20T08:02:39.130Z,15.00
2018-08-20T08:03:39.081Z,16.00
2018-08-20T08:04:39.075Z,16.00
2018-08-20T08:05:39.107Z,16.00
2018-08-20T08:06:39.057Z,17.00
2018-08-20T08:07:39.135Z,17.00
2018-08-20T08:08:39.072Z,17.00
2018-08-20T08:09:39.018Z,18.00
2018-08-20T08:10:39.127Z,18.00
2018-08-20T08:11:39.114Z,18.00
2018-08-20T08:12:39.086Z,18.00
2018-08-20T08:13:39.073Z,18.00
2018-08-20T08:14:39.217Z,18.00
2018-08-20T08:15:39.138Z,17.00
2018-08-20T08:16:39.091Z,17.00
2018-08-20T08:17:39.135Z,14.00
2018-08-20T08:18:39.217Z,13.00
2018-08-20T08:19:39.151Z,11.00
2018-08-20T08:20:39.214Z,10.00
2018-08-20T08:21:39.139Z,9.00
2018-08-20T08:22:39.210Z,9.00
2018-08-20T08:23:39.214Z,8.00
2018-08-20T08:24:39.214Z,8.00
2018-08-20T08:25:39.303Z,7.00
2018-08-20T08:26:39.217Z,7.00
2018-08-20T08:27:39.220Z,7.00
2018-08-20T08:28:39.145Z,7.00
2018-08-20T08:29:39.217Z,6.00
2018-08-20T08:30:39.144Z,6.00
2018-08-20T08:31:39.220Z,6.00
2018-08-20T08:32:39.152Z,6.00
2018-08-20T08:33:39.152Z,6.00
2018-08-20T08:34:39.224Z,7.00
2018-08-20T08:35:39.154Z,8.00
2018-08-20T08:36:39.155Z,8.00
2018-08-20T08:37:39.223Z,9.00
2018-08-20T08:38:39.257Z,9.00
2018-08-20T08:39:39.172Z,10.00
2018-08-20T08:40:39.228Z,10.00
2018-08-20T08:41:39.160Z,10.00
2018-08-20T08:42:39.226Z,10.00
2018-08-20T08:43:39.152Z,11.00
2018-08-20T08:44:39.192Z,11.00
2018-08-20T08:45:39.171Z,11.00
2018-08-20T08:46:39.074Z,12.00
2018-08-20T08:47:39.166Z,12.00
2018-08-20T08:48:39.186Z,11.00
2018-08-20T08:49:39.168Z,11.00
2018-08-20T08:50:39.188Z,10.00
2018-08-20T08:51:39.190Z,10.00
2018-08-20T08:52:39.161Z,10.00
2018-08-20T08:53:39.175Z,11.00
2018-08-20T08:54:39.180Z,11.00
2018-08-20T08:55:39.163Z,12.00
2018-08-20T08:56:39.164Z,13.00
2018-08-20T08:57:39.237Z,14.00
2018-08-20T08:58:39.239Z,14.00
2018-08-20T08:59:39.190Z,15.00
2018-08-20T09:00:39.289Z,15.00
2018-08-20T09:01:39.168Z,15.00
2018-08-20T09:02:39.169Z,15.00
2018-08-20T09:03:39.245Z,15.00
2018-08-20T09:04:39.167Z,16.00
2018-08-20T09:05:39.217Z,16.00
2018-08-20T09:06:39.245Z,17.00
2018-08-20T09:07:39.244Z,17.00
2018-08-20T09:08:39.179Z,18.00
2018-08-20T09:09:39.186Z,19.00
2018-08-20T09:10:39.253Z,19.00
2018-08-20T09:11:39.251Z,20.00
2018-08-20T09:12:39.196Z,20.00
2018-08-20T09:13:39.295Z,20.00
2018-08-20T09:14:39.293Z,20.00
2018-08-20T09:15:39.250Z,20.00
2018-08-20T09:16:39.179Z,20.00
2018-08-20T09:17:39.252Z,19.00
2018-08-20T09:18:39.184Z,19.00
2018-08-20T09:19:39.255Z,19.00
2018-08-20T09:20:39.194Z,19.00
2018-08-20T09:21:39.258Z,20.00
2018-08-20T09:22:39.260Z,20.00
2018-08-20T09:23:39.188Z,20.00
2018-08-20T09:24:39.274Z,20.00
2018-08-20T09:25:39.194Z,20.00
2018-08-20T09:26:39.257Z,20.00
2018-08-20T09:27:39.188Z,20.00
2018-08-20T09:28:39.262Z,19.00
2018-08-20T09:29:39.184Z,19.00
2018-08-20T09:30:39.188Z,18.00
2018-08-20T09:31:39.262Z,16.00
2018-08-20T09:32:39.191Z,15.00
2018-08-20T09:33:39.271Z,13.00
2018-08-20T09:34:39.193Z,12.00
2018-08-20T09:35:39.234Z,12.00
2018-08-20T09:36:39.214Z,11.00
2018-08-20T09:37:39.266Z,11.00
2018-08-20T09:38:39.192Z,12.00
2018-08-20T09:39:39.196Z,12.00
2018-08-20T09:40:39.271Z,13.00
2018-08-20T09:41:39.221Z,13.00
2018-08-20T09:42:39.270Z,13.00
2018-08-20T09:43:39.206Z,12.00
2018-08-20T09:44:39.277Z,12.00
2018-08-20T09:45:39.173Z,13.00
2018-08-20T09:46:39.324Z,13.00
2018-08-20T09:47:39.201Z,14.00
2018-08-20T09:48:39.175Z,14.00
2018-08-20T09:49:39.276Z,14.00
2018-08-20T09:50:39.163Z,14.00
2018-08-20T09:51:39.211Z,14.00
2018-08-20T09:52:39.176Z,15.00
2018-08-20T09:53:39.250Z,15.00
2018-08-20T09:54:39.177Z,15.00
2018-08-20T09:55:39.238Z,15.00
2018-08-20T09:56:39.229Z,15.00
2018-08-20T09:57:39.226Z,15.00
2018-08-20T09:58:39.169Z,15.00
2018-08-20T09:59:39.240Z,15.00
2018-08-20T10:00:39.190Z,15.00
2018-08-20T10:01:39.282Z,14.00
2018-08-20T10:02:39.208Z,14.00
2018-08-20T10:03:39.211Z,14.00
2018-08-20T10:04:39.263Z,13.00
2018-08-20T10:05:39.188Z,13.00
2018-08-20T10:06:39.192Z,13.00
2018-08-20T10:07:39.249Z,12.00
2018-08-20T10:08:39.259Z,12.00
2018-08-20T10:09:39.305Z,12.00
2018-08-20T10:10:39.175Z,12.00
2018-08-20T10:11:39.279Z,12.00
2018-08-20T10:12:39.275Z,12.00
2018-08-20T10:13:39.282Z,12.00
2018-08-20T10:14:39.216Z,12.00
2018-08-20T10:15:39.293Z,12.00
2018-08-20T10:16:39.224Z,12.00
2018-08-20T10:17:39.297Z,13.00
2018-08-20T10:18:39.228Z,14.00
2018-08-20T10:19:39.297Z,15.00
2018-08-20T10:20:39.233Z,15.00
2018-08-20T10:21:39.298Z,16.00
2018-08-20T10:22:39.232Z,17.00
2018-08-20T10:23:39.298Z,18.00
2018-08-20T10:24:39.309Z,19.00
2018-08-20T10:25:39.284Z,20.00
2018-08-20T10:26:39.252Z,22.00
2018-08-20T10:27:39.269Z,23.00
2018-08-20T10:28:39.199Z,24.00
2018-08-20T10:29:39.275Z,24.00
2018-08-20T10:30:39.265Z,24.00
2018-08-20T10:31:39.306Z,24.00
2018-08-20T10:32:39.271Z,23.00
2018-08-20T10:33:39.276Z,22.00
2018-08-20T10:34:39.240Z,22.00
2018-08-20T10:35:39.186Z,23.00
2018-08-20T10:36:39.136Z,24.00
2018-08-20T10:37:39.281Z,25.00
2018-08-20T10:38:39.185Z,26.00
2018-08-20T10:39:39.215Z,26.00
2018-08-20T10:40:39.132Z,27.00
2018-08-20T10:41:39.238Z,27.00
2018-08-20T10:42:39.135Z,27.00
2018-08-20T10:43:39.227Z,27.00
2018-08-20T10:44:39.250Z,26.00
2018-08-20T10:45:39.248Z,26.00
2018-08-20T10:46:39.244Z,26.00
2018-08-20T10:47:39.317Z,25.00
2018-08-20T10:48:39.241Z,25.00
2018-08-20T10:49:39.363Z,24.00
2018-08-20T10:50:39.275Z,24.00
2018-08-20T10:51:39.342Z,24.00
2018-08-20T10:52:39.319Z,24.00
2018-08-20T10:53:39.250Z,24.00
2018-08-20T10:54:39.243Z,24.00
2018-08-20T10:55:39.253Z,24.00
2018-08-20T10:56:39.325Z,24.00
2018-08-20T10:57:39.253Z,24.00
2018-08-20T10:58:39.324Z,24.00
2018-08-20T10:59:39.259Z,24.00
2018-08-20T11:00:39.330Z,24.00
2018-08-20T11:01:39.259Z,24.00
2018-08-20T11:02:39.328Z,24.00
2018-08-20T11:03:39.278Z,24.00
2018-08-20T11:04:39.262Z,24.00
2018-08-20T11:05:39.330Z,24.00
2018-08-20T11:06:39.331Z,24.00
2018-08-20T11:07:39.266Z,24.00
2018-08-20T11:08:39.330Z,23.00
2018-08-20T11:09:39.278Z,23.00
2018-08-20T11:10:39.389Z,22.00
2018-08-20T11:11:39.335Z,22.00
2018-08-20T11:12:39.265Z,22.00
2018-08-20T11:13:39.335Z,22.00
2018-08-20T11:14:39.279Z,23.00
2018-08-20T11:15:39.338Z,22.00
2018-08-20T11:16:39.263Z,22.00
2018-08-20T11:17:39.341Z,22.00
2018-08-20T11:18:39.283Z,21.00
2018-08-20T11:19:39.349Z,21.00
2018-08-20T11:20:39.266Z,22.00
2018-08-20T11:21:39.344Z,23.00
2018-08-20T11:22:39.341Z,23.00
2018-08-20T11:23:39.271Z,24.00
2018-08-20T11:24:39.346Z,24.00
2018-08-20T11:25:39.295Z,24.00
2018-08-20T11:26:39.204Z,25.00
2018-08-20T11:27:39.358Z,25.00
2018-08-20T11:28:39.270Z,26.00
2018-08-20T11:29:39.304Z,26.00
2018-08-20T11:30:39.268Z,27.00
2018-08-20T11:31:39.331Z,28.00
2018-08-20T11:32:39.234Z,28.00
2018-08-20T11:33:39.304Z,29.00
2018-08-20T11:34:39.256Z,29.00
2018-08-20T11:35:39.351Z,29.00
2018-08-20T11:36:39.380Z,29.00
2018-08-20T11:37:39.354Z,29.00
2018-08-20T11:38:39.284Z,30.00
2018-08-20T11:39:39.356Z,30.00
2018-08-20T11:40:39.440Z,30.00
2018-08-20T11:41:39.353Z,29.00
2018-08-20T11:42:39.285Z,29.00
2018-08-20T11:43:39.354Z,29.00
2018-08-20T11:44:39.332Z,29.00
2018-08-20T11:45:39.310Z,29.00
2018-08-20T11:46:39.297Z,29.00
2018-08-20T11:47:39.257Z,30.00
2018-08-20T11:48:39.241Z,30.00
2018-08-20T11:49:39.283Z,30.00
2018-08-20T11:50:39.263Z,29.00
2018-08-20T11:51:39.386Z,29.00
2018-08-20T11:52:39.253Z,30.00
2018-08-20T11:53:39.228Z,28.00
2018-08-20T11:54:39.230Z,26.00
2018-08-20T11:55:39.301Z,24.00
2018-08-20T11:56:39.232Z,22.00
2018-08-20T11:57:39.274Z,21.00
2018-08-20T11:58:39.270Z,19.00
2018-08-20T11:59:39.273Z,19.00
2018-08-20T12:00:39.231Z,18.00
2018-08-20T12:01:39.243Z,17.00
2018-08-20T12:02:39.297Z,17.00
2018-08-20T12:03:39.274Z,16.00
2018-08-20T12:04:39.201Z,16.00
2018-08-20T12:05:39.253Z,16.00
2018-08-20T12:06:39.274Z,16.00
2018-08-20T12:07:39.392Z,17.00
2018-08-20T12:08:39.332Z,17.00
2018-08-20T12:09:39.302Z,18.00
2018-08-20T12:10:39.304Z,18.00
2018-08-20T12:11:39.257Z,19.00
2018-08-20T12:12:39.365Z,19.00
2018-08-20T12:13:39.345Z,20.00
2018-08-20T12:14:39.237Z,20.00
2018-08-20T12:15:39.377Z,20.00
2018-08-20T12:16:39.377Z,19.00
2018-08-20T12:17:39.313Z,18.00
2018-08-20T12:18:39.316Z,17.00
2018-08-20T12:19:39.379Z,16.00
2018-08-20T12:20:39.313Z,15.00
2018-08-20T12:21:39.382Z,15.00
2018-08-20T12:22:39.382Z,14.00
2018-08-20T12:23:39.315Z,14.00
2018-08-20T12:24:39.383Z,14.00
2018-08-20T12:25:39.314Z,14.00
2018-08-20T12:26:39.382Z,14.00
2018-08-20T12:27:39.320Z,14.00
2018-08-20T12:28:39.386Z,14.00
2018-08-20T12:29:39.319Z,13.00
2018-08-20T12:30:39.386Z,13.00
2018-08-20T12:31:39.309Z,12.00
2018-08-20T12:32:39.312Z,12.00
2018-08-20T12:33:39.387Z,11.00
2018-08-20T12:34:39.342Z,10.00
2018-08-20T12:35:39.393Z,9.00
2018-08-20T12:36:39.365Z,9.00
2018-08-20T12:37:39.390Z,9.00
2018-08-20T12:38:39.327Z,8.00
2018-08-20T12:39:39.392Z,8.00
2018-08-20T12:40:39.328Z,8.00
2018-08-20T12:41:39.399Z,8.00
2018-08-20T12:42:39.325Z,8.00
2018-08-20T12:43:39.395Z,8.00
2018-08-20T12:44:39.327Z,8.00
2018-08-20T12:45:39.399Z,8.00
2018-08-20T12:46:39.403Z,8.00
2018-08-20T12:47:39.341Z,9.00
2018-08-20T12:48:39.400Z,9.00
2018-08-20T12:49:39.400Z,9.00
2018-08-20T12:50:39.336Z,9.00
2018-08-20T12:51:39.422Z,9.00
2018-08-20T12:52:39.324Z,9.00
2018-08-20T12:53:39.403Z,9.00
2018-08-20T12:54:39.287Z,9.00
2018-08-20T12:55:39.283Z,9.00
2018-08-20T12:56:39.353Z,9.00
2018-08-20T12:57:39.286Z,8.00
2018-08-20T12:58:39.370Z,8.00
2018-08-20T12:59:39.333Z,8.00
2018-08-20T13:00:39.490Z,8.00
2018-08-20T13:01:39.394Z,8.00
2018-08-20T13:02:39.311Z,8.00
2018-08-20T13:03:39.313Z,8.00
2018-08-20T13:04:39.396Z,8.00
2018-08-20T13:05:39.420Z,8.00
2018-08-20T13:06:39.348Z,8.00
2018-08-20T13:07:39.346Z,8.00
2018-08-20T13:08:39.417Z,8.00
2018-08-20T13:09:39.419Z,8.00
2018-08-20T13:10:39.349Z,9.00
2018-08-20T13:11:39.417Z,9.00
2018-08-20T13:12:39.418Z,9.00